Time;durP1;ratioP1;P1;durP2;ratioP2;P2;SDS_P1;SDS_P2;PMS_P1;PMS_P2;Temp;Humidity;BMP_temperature;BMP_pressure;BME280_temperature;BME280_humidity;BME280_pressure;Samples;Min_cycle;Max_cycle;Signal;HPM_P1;HPM_P2
2023/09/24 00:01:04;;;;;;;14.52;8.98;;;;;;;10.81;100.00;101503.63;5040374;28;20222;-79
2023/09/24 00:03:31;;;;;;;14.25;9.52;;;;;;;10.81;100.00;101507.13;5047710;28;20033;-79
2023/09/24 00:05:59;;;;;;;14.07;8.32;;;;;;;10.72;100.00;101505.31;5039597;28;20467;-79
2023/09/24 00:08:24;;;;;;;10.95;7.68;;;;;;;10.76;100.00;101518.25;5046376;28;20079;-78
2023/09/24 00:10:52;;;;;;;14.67;7.93;;;;;;;10.68;100.00;101515.47;5045562;28;20064;-79
2023/09/24 00:13:19;;;;;;;16.25;8.50;;;;;;;10.61;100.00;101521.53;5041418;28;20040;-76
2023/09/24 00:15:45;;;;;;;18.50;8.77;;;;;;;10.57;100.00;101528.97;5032550;28;20175;-77
2023/09/24 00:18:10;;;;;;;18.67;8.25;;;;;;;10.53;100.00;101531.06;5029197;28;20697;-77
2023/09/24 00:20:35;;;;;;;16.83;10.47;;;;;;;10.79;100.00;101543.81;5041744;28;20040;-77
2023/09/24 00:23:01;;;;;;;17.10;9.17;;;;;;;10.65;100.00;101544.28;5025964;28;20759;-77
2023/09/24 00:25:28;;;;;;;23.33;10.45;;;;;;;10.85;100.00;101567.28;5022597;28;20040;-76
2023/09/24 00:27:54;;;;;;;14.38;8.55;;;;;;;10.80;100.00;101561.53;5036766;28;20147;-77
2023/09/24 00:30:20;;;;;;;;;;;;;;;10.77;100.00;101569.84;5026863;28;20564;-79
2023/09/24 00:32:45;;;;;;;12.52;7.47;;;;;;;10.66;100.00;101556.66;5055101;28;20008;-77
2023/09/24 00:35:10;;;;;;;18.87;9.40;;;;;;;10.62;100.00;101560.59;5023876;28;20057;-78
2023/09/24 00:37:36;;;;;;;17.73;10.50;;;;;;;10.73;100.00;101573.78;5022031;28;20033;-79
2023/09/24 00:40:06;;;;;;;25.23;11.33;;;;;;;10.89;100.00;101582.06;5028345;28;20528;-78
2023/09/24 00:42:32;;;;;;;17.25;8.60;;;;;;;10.82;100.00;101585.44;5024747;28;20037;-78
2023/09/24 00:44:59;;;;;;;20.88;10.38;;;;;;;10.72;100.00;101575.63;5044741;28;20098;-75
2023/09/24 00:47:25;;;;;;;26.33;12.48;;;;;;;10.79;100.00;101575.88;5044539;28;20688;-79
2023/09/24 00:49:54;;;;;;;24.05;13.43;;;;;;;11.00;100.00;101599.72;5043292;28;20404;-78
2023/09/24 00:52:20;;;;;;;27.60;13.95;;;;;;;11.05;100.00;101612.66;5042907;28;20049;-78
2023/09/24 00:54:46;;;;;;;;;;;;;;;11.08;100.00;101623.09;5044972;28;20037;-78
2023/09/24 00:57:11;;;;;;;30.58;15.85;;;;;;;11.03;100.00;101626.19;5032732;28;19917;-77
2023/09/24 00:59:38;;;;;;;28.73;15.32;;;;;;;11.01;100.00;101617.47;5044546;28;20037;-75
2023/09/24 01:02:03;;;;;;;33.35;15.30;;;;;;;11.06;100.00;101633.06;5031799;28;20100;-78
2023/09/24 01:04:29;;;;;;;31.73;16.13;;;;;;;10.99;100.00;101630.97;5044002;28;20511;-77
2023/09/24 01:06:55;;;;;;;32.63;14.50;;;;;;;11.07;100.00;101640.91;5038297;28;20040;-78
2023/09/24 01:09:20;;;;;;;28.40;15.23;;;;;;;11.11;100.00;101645.00;5041284;28;20435;-78
2023/09/24 01:11:49;;;;;;;26.90;14.80;;;;;;;11.01;100.00;101638.00;5045468;28;20033;-77
2023/09/24 01:14:15;;;;;;;27.23;14.63;;;;;;;11.03;100.00;101647.56;5041133;28;20041;-79
2023/09/24 01:16:40;;;;;;;35.17;17.10;;;;;;;11.00;100.00;101645.16;5023521;28;20031;-78
2023/09/24 01:19:06;;;;;;;30.40;16.15;;;;;;;10.88;100.00;101644.47;5038659;28;20464;-77
2023/09/24 01:21:31;;;;;;;34.72;16.85;;;;;;;10.85;100.00;101650.09;5026839;28;20044;-77
2023/09/24 01:23:59;;;;;;;44.80;18.27;;;;;;;10.82;100.00;101642.38;5039280;28;20068;-77
2023/09/24 01:26:25;;;;;;;40.35;16.35;;;;;;;10.79;100.00;101645.31;5036715;28;20487;-78
2023/09/24 01:28:51;;;;;;;;;;;;;;;10.77;100.00;101648.16;5035838;28;20033;-78
2023/09/24 01:31:20;;;;;;;;;;;;;;;10.77;100.00;101652.66;5042934;28;19913;-78
2023/09/24 01:33:47;;;;;;;34.88;16.02;;;;;;;10.69;100.00;101648.00;5039204;28;20000;-78
2023/09/24 01:36:13;;;;;;;30.83;14.32;;;;;;;10.60;100.00;101640.00;5026262;28;20033;-77
2023/09/24 01:38:43;;;;;;;36.80;15.73;;;;;;;10.59;100.00;101649.84;5039643;28;20074;-76
2023/09/24 01:41:10;;;;;;;31.38;15.60;;;;;;;10.44;100.00;101652.09;5027471;28;20033;-78
2023/09/24 01:43:42;;;;;;;32.22;15.10;;;;;;;10.34;100.00;101643.22;5027868;28;20041;-78
2023/09/24 01:46:09;;;;;;;39.83;16.35;;;;;;;10.26;100.00;101643.06;5043100;28;20037;-77
2023/09/24 01:48:37;;;;;;;35.80;16.17;;;;;;;10.19;100.00;101652.59;5044154;28;20451;-77
2023/09/24 01:51:12;;;;;;;29.02;16.45;;;;;;;10.26;100.00;101665.25;5043253;28;20049;-75
2023/09/24 01:53:38;;;;;;;23.98;13.50;;;;;;;10.27;100.00;101652.72;5020265;28;20697;-77
2023/09/24 01:56:04;;;;;;;32.42;14.55;;;;;;;10.29;100.00;101658.81;5027897;28;20540;-77
2023/09/24 01:58:30;;;;;;;30.20;15.23;;;;;;;10.29;100.00;101653.47;5040701;28;20143;-78
2023/09/24 02:00:55;;;;;;;28.67;14.63;;;;;;;10.34;100.00;101662.75;5037815;28;20037;-79
2023/09/24 02:03:21;;;;;;;26.90;14.18;;;;;;;10.33;100.00;101660.22;5027851;28;20033;-78
2023/09/24 02:05:46;;;;;;;29.90;14.47;;;;;;;10.33;100.00;101665.56;5039403;28;20137;-77
2023/09/24 02:08:15;;;;;;;30.17;14.57;;;;;;;10.30;100.00;101661.34;5026978;28;20506;-75
2023/09/24 02:10:42;;;;;;;32.38;15.05;;;;;;;10.38;100.00;101674.00;5025204;28;20034;-77
2023/09/24 02:13:10;;;;;;;29.27;14.75;;;;;;;10.36;100.00;101662.59;5030197;28;20029;-78
2023/09/24 02:15:37;;;;;;;46.42;17.27;;;;;;;10.27;100.00;101652.72;5041540;28;20072;-76
2023/09/24 02:18:04;;;;;;;55.63;19.75;;;;;;;10.19;100.00;101657.94;5040930;28;20034;-76
2023/09/24 02:22:59;;;;;;;49.00;18.08;;;;;;;10.33;100.00;101678.91;5037890;28;20127;-76
2023/09/24 02:25:26;;;;;;;51.20;20.10;;;;;;;10.28;100.00;101679.31;5012715;28;20037;-76
2023/09/24 02:27:52;;;;;;;35.35;16.63;;;;;;;10.36;100.00;101683.97;5027296;28;20021;-78
2023/09/24 02:30:23;;;;;;;38.30;19.23;;;;;;;10.38;100.00;101687.34;5027871;28;20026;-78
2023/09/24 02:32:48;;;;;;;43.15;19.48;;;;;;;10.32;100.00;101685.22;5012180;28;20533;-76
2023/09/24 02:35:14;;;;;;;46.55;18.63;;;;;;;10.25;100.00;101679.53;5025348;28;20474;-77
2023/09/24 02:37:44;;;;;;;38.10;16.83;;;;;;;10.21;100.00;101687.97;5039427;28;20033;-77
2023/09/24 02:40:30;;;;;;;45.92;19.05;;;;;;;10.14;100.00;101677.84;5027616;28;20532;-78
2023/09/24 02:42:59;;;;;;;;;;;;;;;10.23;100.00;101702.00;5038468;28;20057;-78
2023/09/24 02:45:26;;;;;;;49.13;18.77;;;;;;;10.25;100.00;101700.06;5028832;28;19912;-77
2023/09/24 02:47:52;;;;;;;67.35;21.73;;;;;;;10.19;100.00;101696.13;5037721;28;20506;-76
2023/09/24 02:50:23;;;;;;;34.45;16.75;;;;;;;10.21;100.00;101703.97;5026823;28;20029;-78
2023/09/24 02:52:53;;;;;;;41.53;19.27;;;;;;;10.20;100.00;101696.97;5024117;28;20045;-77
2023/09/24 02:55:19;;;;;;;41.03;19.40;;;;;;;10.24;100.00;101699.22;5040873;28;20096;-77
2023/09/24 02:57:46;;;;;;;55.35;20.60;;;;;;;10.35;100.00;101712.50;5037862;28;20028;-78
2023/09/24 03:00:19;;;;;;;117.28;25.67;;;;;;;10.33;100.00;101708.28;5024259;28;20029;-78
2023/09/24 03:02:45;;;;;;;71.13;22.15;;;;;;;10.38;100.00;101721.22;5040483;28;20170;-77
2023/09/24 03:05:12;;;;;;;47.63;20.00;;;;;;;10.50;100.00;101720.94;5039791;28;20030;-78
2023/09/24 03:07:40;;;;;;;58.40;20.88;;;;;;;10.49;100.00;101721.09;5039489;28;20530;-78
2023/09/24 03:10:07;;;;;;;47.10;19.58;;;;;;;10.51;100.00;101727.13;5028861;28;20144;-79
2023/09/24 03:12:34;;;;;;;49.83;21.10;;;;;;;10.51;100.00;101716.44;5039763;28;20035;-75
2023/09/24 03:15:00;;;;;;;44.50;18.92;;;;;;;10.49;100.00;101723.75;5039652;28;20041;-78
2023/09/24 03:17:25;;;;;;;57.28;19.33;;;;;;;10.45;100.00;101720.50;5013691;28;20478;-78
2023/09/24 03:19:51;;;;;;;48.87;20.90;;;;;;;10.44;100.00;101726.84;5037735;28;20060;-76
2023/09/24 03:22:17;;;;;;;38.57;17.70;;;;;;;10.48;100.00;101733.56;5042456;28;20037;-77
2023/09/24 03:24:42;;;;;;;51.60;19.75;;;;;;;10.44;100.00;101734.00;5039030;28;20037;-75
2023/09/24 03:27:08;;;;;;;55.87;20.63;;;;;;;10.49;100.00;101742.47;5038617;28;20468;-76
2023/09/24 03:29:33;;;;;;;61.53;19.27;;;;;;;10.52;100.00;101743.00;5047739;28;20118;-77
2023/09/24 03:31:58;;;;;;;55.20;20.00;;;;;;;10.48;100.00;101738.91;5020562;28;20071;-78
2023/09/24 03:34:24;;;;;;;73.07;22.03;;;;;;;10.49;100.00;101751.31;5027575;28;20059;-79
2023/09/24 03:36:49;;;;;;;55.53;23.03;;;;;;;10.58;100.00;101762.97;5039627;28;20029;-77
2023/09/24 03:39:15;;;;;;;64.38;20.67;;;;;;;10.46;100.00;101759.56;5027222;28;20464;-77
2023/09/24 03:41:41;;;;;;;41.63;20.45;;;;;;;10.54;100.00;101764.25;5039899;28;20029;-77
2023/09/24 03:44:06;;;;;;;46.30;18.50;;;;;;;10.40;100.00;101748.63;5039649;28;20060;-78
2023/09/24 03:46:31;;;;;;;45.70;18.87;;;;;;;10.40;100.00;101762.81;5040148;28;20529;-77
2023/09/24 03:48:57;;;;;;;44.30;20.33;;;;;;;10.26;100.00;101741.81;5033978;28;20024;-78
2023/09/24 03:51:22;;;;;;;46.45;19.83;;;;;;;10.31;100.00;101764.44;5027277;28;20038;-76
2023/09/24 03:53:50;;;;;;;51.70;19.85;;;;;;;10.32;100.00;101754.63;5029481;28;20041;-77
2023/09/24 03:56:17;;;;;;;41.60;18.02;;;;;;;10.34;100.00;101760.66;5040556;28;20039;-78
2023/09/24 03:58:42;;;;;;;53.92;20.55;;;;;;;10.22;100.00;101764.41;5039520;28;20048;-75
2023/09/24 04:01:09;;;;;;;54.90;19.07;;;;;;;10.26;100.00;101773.81;5026605;28;20100;-75
2023/09/24 04:03:35;;;;;;;53.72;19.50;;;;;;;10.27;100.00;101770.16;5044181;28;20272;-78
2023/09/24 04:06:07;;;;;;;56.90;21.10;;;;;;;10.26;100.00;101785.34;5022197;28;20105;-79
2023/09/24 04:08:32;;;;;;;56.35;20.52;;;;;;;10.26;100.00;101774.66;5032850;28;20033;-76
2023/09/24 04:10:58;;;;;;;53.53;22.20;;;;;;;10.27;100.00;101781.69;5014563;28;20024;-77
2023/09/24 04:13:23;;;;;;;59.13;21.03;;;;;;;10.29;100.00;101792.25;5052794;28;20573;-79
2023/09/24 04:15:51;;;;;;;46.90;20.83;;;;;;;10.27;100.00;101796.84;5052035;28;20128;-79
2023/09/24 04:18:17;;;;;;;104.10;25.05;;;;;;;10.18;100.00;101795.00;5053637;28;20021;-76
2023/09/24 04:20:43;;;;;;;;;;;;;;;10.25;100.00;101813.00;5051942;28;20040;-78
2023/09/24 04:23:11;;;;;;;59.75;21.63;;;;;;;10.15;100.00;101815.63;5051566;28;19920;-78
2023/09/24 04:25:37;;;;;;;76.80;23.40;;;;;;;10.15;100.00;101810.28;5051442;28;20387;-78
2023/09/24 04:28:03;;;;;;;58.75;21.77;;;;;;;10.13;100.00;101804.22;5052432;28;20044;-79
2023/09/24 04:30:29;;;;;;;65.57;22.58;;;;;;;10.08;100.00;101801.13;5052912;28;20037;-79
2023/09/24 04:32:56;;;;;;;75.07;24.70;;;;;;;10.24;100.00;101824.66;5052556;28;20032;-79
2023/09/24 04:35:23;;;;;;;73.70;23.73;;;;;;;10.25;100.00;101834.34;5053387;28;20389;-76
2023/09/24 04:37:49;;;;;;;70.47;24.85;;;;;;;10.22;100.00;101828.44;5049878;28;20037;-77
2023/09/24 04:40:15;;;;;;;98.18;26.55;;;;;;;10.09;100.00;101834.84;5037104;28;20130;-78
2023/09/24 04:42:41;;;;;;;71.32;24.17;;;;;;;10.12;100.00;101839.06;5053405;28;20029;-76
2023/09/24 04:45:08;;;;;;;78.30;24.02;;;;;;;10.07;100.00;101844.81;5025711;28;20044;-77
2023/09/24 04:47:34;;;;;;;59.47;21.80;;;;;;;10.06;100.00;101843.09;5046768;28;20090;-77
2023/09/24 04:49:59;;;;;;;53.00;20.42;;;;;;;10.07;100.00;101851.97;5050237;28;20029;-78
2023/09/24 04:52:24;;;;;;;60.67;21.87;;;;;;;10.09;100.00;101850.88;5036973;28;20399;-77
2023/09/24 04:54:52;;;;;;;92.53;26.70;;;;;;;9.90;100.00;101846.28;5048576;28;20120;-76
2023/09/24 04:57:18;;;;;;;56.22;20.95;;;;;;;9.96;100.00;101850.22;5048834;28;20191;-76
2023/09/24 04:59:43;;;;;;;95.85;27.80;;;;;;;9.93;100.00;101862.00;5046974;28;20123;-78
2023/09/24 05:02:09;;;;;;;58.70;23.33;;;;;;;10.03;100.00;101856.72;5049838;28;20123;-78
2023/09/24 05:04:35;;;;;;;96.70;25.10;;;;;;;9.99;100.00;101865.13;5048448;28;20029;-77
2023/09/24 05:07:01;;;;;;;92.85;25.02;;;;;;;9.84;100.00;101861.94;5047606;28;20064;-78
2023/09/24 05:09:26;;;;;;;57.88;20.52;;;;;;;9.94;100.00;101869.00;5050013;28;20040;-77
2023/09/24 05:11:52;;;;;;;53.60;20.80;;;;;;;9.98;100.00;101863.44;5049633;28;20033;-77
2023/09/24 05:14:18;;;;;;;55.83;20.15;;;;;;;9.89;100.00;101865.91;5049607;28;20040;-76
2023/09/24 05:16:43;;;;;;;67.72;22.15;;;;;;;9.84;100.00;101865.44;5062542;28;20399;-78
2023/09/24 05:19:09;;;;;;;68.97;21.47;;;;;;;9.85;100.00;101876.97;5048521;28;20570;-77
2023/09/24 05:21:35;;;;;;;47.40;19.73;;;;;;;9.86;100.00;101892.00;5049118;28;20287;-76
2023/09/24 05:24:03;;;;;;;45.05;19.73;;;;;;;9.78;100.00;101889.13;5048095;28;20032;-77
2023/09/24 05:26:28;;;;;;;59.03;19.80;;;;;;;9.77;100.00;101887.44;5041320;28;20041;-77
2023/09/24 05:28:53;;;;;;;63.93;20.83;;;;;;;9.89;100.00;101899.75;5047781;28;20067;-78
2023/09/24 05:31:19;;;;;;;37.50;17.97;;;;;;;9.86;100.00;101902.69;5049965;28;20029;-76
2023/09/24 05:33:47;;;;;;;39.37;16.37;;;;;;;9.77;100.00;101903.44;5041951;28;20032;-78
2023/09/24 05:36:13;;;;;;;50.72;20.40;;;;;;;9.83;100.00;101910.91;5026683;28;20396;-76
2023/09/24 05:38:38;;;;;;;44.38;18.00;;;;;;;9.86;100.00;101924.84;5022048;28;20021;-76
2023/09/24 05:41:05;;;;;;;52.13;19.90;;;;;;;9.89;100.00;101921.09;5038941;28;20037;-78
2023/09/24 05:43:31;;;;;;;47.97;19.35;;;;;;;10.00;100.00;101930.84;5066119;23;20044;-78
2023/09/24 05:45:56;;;;;;;47.45;19.10;;;;;;;9.99;100.00;101931.81;5031091;28;20037;-78
2023/09/24 05:48:22;;;;;;;44.63;19.70;;;;;;;10.03;100.00;101930.59;5037246;28;20040;-78
2023/09/24 05:50:47;;;;;;;43.03;18.77;;;;;;;10.06;100.00;101944.50;5029169;28;20042;-78
2023/09/24 05:53:14;;;;;;;51.60;17.80;;;;;;;10.14;100.00;101946.53;5026262;28;20268;-77
2023/09/24 05:55:40;;;;;;;49.30;18.38;;;;;;;9.99;100.00;101939.81;5015701;28;20033;-77
2023/09/24 05:58:06;;;;;;;45.22;18.50;;;;;;;10.08;100.00;101945.22;5014454;28;20122;-78
2023/09/24 06:00:35;;;;;;;52.08;19.83;;;;;;;10.08;100.00;101955.06;5017993;28;20025;-78
2023/09/24 06:03:01;;;;;;;46.30;18.50;;;;;;;10.43;100.00;101952.06;5009065;28;20431;-77
2023/09/24 06:05:27;;;;;;;41.07;17.70;;;;;;;10.69;100.00;101963.16;5015312;28;20120;-77
2023/09/24 06:07:52;;;;;;;38.03;17.00;;;;;;;11.13;100.00;101970.94;5014652;28;20029;-77
2023/09/24 06:10:20;;;;;;;35.83;14.80;;;;;;;11.31;100.00;101966.63;5011462;28;20042;-78
2023/09/24 06:12:46;;;;;;;34.03;14.43;;;;;;;11.07;100.00;101945.56;5017516;28;20384;-77
2023/09/24 06:15:13;;;;;;;30.75;13.77;;;;;;;10.95;100.00;101944.84;5000199;28;20041;-77
2023/09/24 06:17:39;;;;;;;30.30;14.40;;;;;;;10.92;100.00;101939.78;4995257;28;20045;-78
2023/09/24 06:20:05;;;;;;;29.95;15.02;;;;;;;10.70;100.00;101932.81;5016666;28;20381;-77
2023/09/24 06:22:31;;;;;;;31.50;14.75;;;;;;;10.73;100.00;101942.38;5017759;28;20112;-77
2023/09/24 06:24:57;;;;;;;29.45;13.93;;;;;;;10.74;100.00;101946.72;5011765;28;20692;-77
2023/09/24 06:27:22;;;;;;;28.10;13.82;;;;;;;10.80;100.00;101951.56;5017522;28;20037;-77
2023/09/24 06:29:47;;;;;;;28.00;12.87;;;;;;;10.84;100.00;101952.97;5017027;28;20037;-77
2023/09/24 06:32:13;;;;;;;28.23;13.03;;;;;;;10.77;100.00;101947.31;5012118;28;20410;-77
2023/09/24 06:34:39;;;;;;;30.42;13.50;;;;;;;10.66;100.00;101954.59;5016749;28;20038;-77
2023/09/24 06:37:04;;;;;;;26.50;13.93;;;;;;;10.72;100.00;101957.56;4999966;28;20042;-77
2023/09/24 06:39:30;;;;;;;30.65;14.65;;;;;;;10.79;100.00;101971.22;5015987;28;20384;-77
2023/09/24 06:41:55;;;;;;;23.13;13.25;;;;;;;10.95;100.00;101976.91;5013822;28;20051;-77
2023/09/24 06:44:22;;;;;;;25.67;12.68;;;;;;;10.99;100.00;101983.69;5016992;28;20033;-77
2023/09/24 06:46:49;;;;;;;31.58;13.32;;;;;;;11.35;100.00;101983.22;5016720;28;20045;-78
2023/09/24 06:49:14;;;;;;;;;;;;;;;11.65;100.00;101994.81;5017472;28;20042;-77
2023/09/24 06:51:39;;;;;;;27.85;12.45;;;;;;;11.95;100.00;101993.88;5018211;28;20289;-77
2023/09/24 06:54:05;;;;;;;19.73;12.37;;;;;;;12.67;100.00;102009.41;5002372;28;20038;-77
2023/09/24 06:56:30;;;;;;;16.97;10.13;;;;;;;13.20;100.00;102010.59;5016901;28;20045;-77
2023/09/24 06:58:56;;;;;;;20.43;10.33;;;;;;;13.43;100.00;102003.03;5013460;28;20041;-78
2023/09/24 07:01:22;;;;;;;14.97;9.00;;;;;;;13.08;100.00;101974.25;5002613;28;20029;-77
2023/09/24 07:03:48;;;;;;;15.13;8.30;;;;;;;13.32;100.00;101964.84;5016884;28;20567;-78
2023/09/24 07:06:16;;;;;;;13.00;8.32;;;;;;;13.47;100.00;101972.22;5016480;28;20038;-78
2023/09/24 07:08:41;;;;;;;15.10;7.85;;;;;;;13.62;100.00;101960.97;5017964;28;20447;-78
2023/09/24 07:11:27;;;;;;;11.30;7.57;;;;;;;14.05;100.00;101960.19;5015587;28;20029;-78
2023/09/24 07:13:54;;;;;;;8.85;6.45;;;;;;;14.63;100.00;101964.13;5015978;28;20044;-79
2023/09/24 07:16:24;;;;;;;11.75;6.20;;;;;;;14.98;100.00;101938.06;4998643;28;20077;-79
2023/09/24 07:18:50;;;;;;;9.02;5.40;;;;;;;14.31;100.00;101903.78;5004137;28;20045;-78
2023/09/24 07:21:20;;;;;;;10.95;5.45;;;;;;;13.78;100.00;101907.44;5016828;28;20033;-78
2023/09/24 07:23:47;;;;;;;12.05;6.10;;;;;;;14.23;100.00;101911.78;5016102;28;20033;-79
2023/09/24 07:26:13;;;;;;;8.90;5.55;;;;;;;14.22;100.00;101903.91;5016881;28;20405;-77
2023/09/24 07:28:39;;;;;;;11.55;5.38;;;;;;;14.19;100.00;101914.94;5018298;28;20480;-77
2023/09/24 07:31:29;;;;;;;10.20;5.82;;;;;;;14.15;100.00;101904.53;5015918;28;20037;-78
2023/09/24 07:33:56;;;;;;;10.43;5.75;;;;;;;14.47;100.00;101903.06;5016244;28;20034;-78
2023/09/24 07:36:22;;;;;;;9.43;5.30;;;;;;;14.13;100.00;101897.63;5015797;28;20027;-78
2023/09/24 07:38:52;;;;;;;10.13;5.78;;;;;;;14.41;100.00;101930.56;5016132;28;20387;-78
2023/09/24 07:41:19;;;;;;;6.95;4.85;;;;;;;14.10;100.00;101895.28;5015599;28;20121;-77
2023/09/24 07:43:45;;;;;;;9.38;4.47;;;;;;;14.23;100.00;101910.97;5018989;28;20021;-77
2023/09/24 07:46:12;;;;;;;14.67;5.83;;;;;;;14.13;100.00;101889.59;5020031;28;20034;-78
2023/09/24 07:48:39;;;;;;;6.07;4.97;;;;;;;14.46;100.00;101905.88;5022535;28;20163;-77
2023/09/24 07:51:04;;;;;;;8.63;4.93;;;;;;;14.18;100.00;101881.06;5020033;28;20477;-78
2023/09/24 07:53:30;;;;;;;6.47;3.95;;;;;;;14.33;100.00;101909.03;5022231;28;20063;-78
2023/09/24 07:56:06;;;;;;;7.50;5.13;;;;;;;14.28;100.00;101884.47;5018585;28;20507;-78
2023/09/24 07:58:32;;;;;;;9.95;4.53;;;;;;;14.27;100.00;101880.94;5016995;28;20131;-77
2023/09/24 08:01:06;;;;;;;9.75;4.47;;;;;;;14.44;100.00;101865.72;5019072;28;20445;-78
2023/09/24 08:03:32;;;;;;;9.13;3.90;;;;;;;14.62;100.00;101894.41;5015084;28;20034;-78
2023/09/24 08:05:58;;;;;;;9.13;3.70;;;;;;;14.70;100.00;101881.00;5020685;28;20038;-77
2023/09/24 08:08:27;;;;;;;;;;;;;;;14.74;100.00;101861.69;5017143;28;20415;-78
2023/09/24 08:10:52;;;;;;;5.90;3.40;;;;;;;14.88;100.00;101851.34;5021212;28;20350;-77
2023/09/24 08:13:19;;;;;;;7.28;4.13;;;;;;;15.67;100.00;101889.44;5006763;28;20049;-79
2023/09/24 08:15:45;;;;;;;12.18;3.90;;;;;;;15.90;100.00;101793.53;5021580;28;20160;-79
2023/09/24 08:18:11;;;;;;;6.43;3.45;;;;;;;15.47;100.00;101749.81;5020896;28;20018;-79
2023/09/24 08:20:37;;;;;;;;;;;;;;;15.67;100.00;101857.16;5023915;28;20512;-77
2023/09/24 08:23:03;;;;;;;12.65;3.15;;;;;;;15.25;100.00;101704.78;5019728;28;20083;-77
2023/09/24 08:25:29;;;;;;;11.45;3.33;;;;;;;15.48;100.00;101802.66;5024152;28;20029;-78
2023/09/24 08:27:55;;;;;;;6.28;4.28;;;;;;;15.33;100.00;101763.97;5020040;28;20040;-79
2023/09/24 08:30:20;;;;;;;3.53;2.63;;;;;;;16.40;100.00;101885.84;5021195;28;20030;-79
2023/09/24 08:32:46;;;;;;;6.00;2.53;;;;;;;16.04;100.00;101670.78;5021308;28;20037;-78
2023/09/24 08:35:11;;;;;;;6.33;2.43;;;;;;;15.80;100.00;101720.16;4988334;28;20045;-79
2023/09/24 08:37:37;;;;;;;18.88;3.60;;;;;;;15.79;100.00;101769.66;5021798;28;20507;-77
2023/09/24 08:40:03;;;;;;;6.77;2.30;;;;;;;15.96;100.00;101787.44;5020044;28;20021;-79
2023/09/24 08:42:31;;;;;;;4.68;2.30;;;;;;;16.31;100.00;101696.38;5021989;28;20038;-79
2023/09/24 08:45:14;;;;;;;5.65;2.60;;;;;;;16.27;100.00;101583.75;5003070;28;20033;-77
2023/09/24 08:47:44;;;;;;;6.97;2.90;;;;;;;16.62;100.00;101649.69;5019248;28;20037;-79
2023/09/24 08:50:09;;;;;;;6.72;2.03;;;;;;;17.54;100.00;101725.09;5004738;28;20030;-80
2023/09/24 08:52:39;;;;;;;4.20;2.28;;;;;;;18.89;100.00;101630.03;5021613;28;20032;-79
2023/09/24 08:55:06;;;;;;;5.22;1.88;;;;;;;19.33;100.00;101387.94;5015501;28;20030;-79
2023/09/24 08:57:35;;;;;;;3.63;2.10;;;;;;;19.95;100.00;101223.34;5020860;28;20029;-79
2023/09/24 09:00:01;;;;;;;6.45;2.58;;;;;;;20.22;100.00;100860.00;5017670;28;20045;-78
2023/09/24 09:02:27;;;;;;;6.13;1.52;;;;;;;20.03;100.00;100878.09;5006034;28;20041;-79
2023/09/24 09:04:55;;;;;;;;;;;;;;;20.26;100.00;100752.78;5020067;28;20032;-79
2023/09/24 09:07:20;;;;;;;2.70;1.60;;;;;;;21.28;100.00;100956.53;5021644;28;19917;-78
2023/09/24 09:09:59;;;;;;;5.68;1.45;;;;;;;21.11;100.00;100444.34;5020555;28;20032;-79
2023/09/24 09:12:26;;;;;;;4.20;1.30;;;;;;;19.63;100.00;100493.84;5006893;28;20373;-79
2023/09/24 09:14:51;;;;;;;3.45;1.50;;;;;;;19.36;100.00;100561.00;5019946;28;20064;-79
2023/09/24 09:17:17;;;;;;;4.60;1.20;;;;;;;19.59;100.00;100747.19;5020885;28;20061;-80
2023/09/24 09:19:51;;;;;;;4.95;1.45;;;;;;;20.16;100.00;100712.66;5022191;28;20034;-77
2023/09/24 09:22:24;;;;;;;2.80;1.20;;;;;;;20.85;100.00;100761.25;5024399;28;20045;-77
2023/09/24 09:25:05;;;;;;;3.17;0.90;;;;;;;21.03;100.00;100373.09;5019434;28;20199;-79
2023/09/24 09:27:31;;;;;;;3.80;1.17;;;;;;;20.58;100.00;100314.13;5009711;28;20369;-79
2023/09/24 09:30:15;;;;;;;4.88;0.98;;;;;;;20.33;100.00;100325.19;5021872;28;20037;-77
2023/09/24 09:32:41;;;;;;;2.70;1.00;;;;;;;20.34;99.88;100185.06;5020072;28;20033;-79
2023/09/24 09:35:07;;;;;;;4.55;1.10;;;;;;;19.78;100.00;100238.84;5019048;28;20093;-76
2023/09/24 09:37:33;;;;;;;4.95;1.48;;;;;;;20.97;100.00;100583.00;5022109;28;20041;-77
2023/09/24 09:39:58;;;;;;;2.50;0.80;;;;;;;21.67;98.00;100546.81;5019789;28;20045;-78
2023/09/24 09:42:25;;;;;;;4.90;1.17;;;;;;;20.58;89.72;99738.41;5019231;28;20033;-79
2023/09/24 09:44:52;;;;;;;4.30;0.88;;;;;;;21.39;92.03;100278.75;5018176;28;20037;-78
2023/09/24 09:47:20;;;;;;;4.80;1.00;;;;;;;21.45;87.59;99883.25;5017997;28;20032;-77
2023/09/24 09:49:58;;;;;;;3.33;0.90;;;;;;;21.61;89.94;100232.72;5019394;28;20083;-79
2023/09/24 09:52:31;;;;;;;5.53;1.55;;;;;;;21.85;85.27;99931.72;5004682;28;20032;-79
2023/09/24 09:55:00;;;;;;;1.70;0.68;;;;;;;21.75;86.67;100156.28;5017728;28;20564;-78
2023/09/24 09:57:26;;;;;;;3.65;1.10;;;;;;;21.98;83.34;99944.06;4999811;28;20036;-78
2023/09/24 09:59:52;;;;;;;3.38;0.80;;;;;;;21.57;81.55;99758.97;5020193;28;20030;-78
2023/09/24 10:02:18;;;;;;;;;;;;;;;22.29;80.63;99890.81;4986439;28;20042;-78
2023/09/24 10:04:45;;;;;;;2.85;1.08;;;;;;;22.63;79.04;99819.75;5000331;28;19912;-78
2023/09/24 10:07:11;;;;;;;7.60;1.17;;;;;;;23.18;76.33;99750.31;4999722;28;20653;-79
2023/09/24 10:09:37;;;;;;;2.08;0.88;;;;;;;23.84;73.95;99786.06;5002356;28;20206;-80
2023/09/24 10:12:09;;;;;;;3.53;0.70;;;;;;;22.44;76.74;99843.88;4999910;28;20543;-78
2023/09/24 10:14:39;;;;;;;2.63;0.98;;;;;;;20.79;71.52;98785.66;5002113;28;20129;-78
2023/09/24 10:17:23;;;;;;;3.28;0.77;;;;;;;20.98;74.88;99506.63;4984595;28;20389;-78
2023/09/24 10:19:58;;;;;;;6.32;0.82;;;;;;;21.56;73.83;99550.13;5016959;28;20030;-78
2023/09/24 10:22:28;;;;;;;3.80;0.77;;;;;;;22.36;74.13;99878.88;5003198;28;20037;-78
2023/09/24 10:24:53;;;;;;;1.75;0.47;;;;;;;21.45;67.82;98754.66;5016131;28;20063;-78
2023/09/24 10:27:23;;;;;;;3.90;0.68;;;;;;;22.03;70.16;99400.59;5016752;28;20664;-78
2023/09/24 10:29:53;;;;;;;2.92;0.80;;;;;;;21.75;69.47;99173.78;5016462;28;20091;-78
2023/09/24 10:32:19;;;;;;;3.22;0.93;;;;;;;22.55;69.02;99443.03;5018266;28;20074;-78
2023/09/24 10:34:59;;;;;;;1.13;0.90;;;;;;;21.08;67.56;98790.41;5000654;28;20104;-78
2023/09/24 10:37:26;;;;;;;2.10;0.80;;;;;;;20.19;68.19;98687.16;4999256;28;20432;-77
2023/09/24 10:40:09;;;;;;;1.55;0.70;;;;;;;20.93;68.87;99153.91;4996866;28;20030;-77
2023/09/24 10:42:39;;;;;;;2.65;0.80;;;;;;;20.32;69.42;99040.72;4986321;28;20112;-78
2023/09/24 10:45:07;;;;;;;2.55;0.73;;;;;;;20.43;70.07;99188.75;5009947;28;20045;-78
2023/09/24 10:47:37;;;;;;;3.15;0.80;;;;;;;20.33;70.69;99200.38;5018289;28;20400;-78
2023/09/24 10:50:12;;;;;;;2.17;0.90;;;;;;;20.34;72.15;99474.91;4999395;28;20125;-78
2023/09/24 10:52:48;;;;;;;2.78;0.60;;;;;;;21.01;70.21;99425.50;5018258;28;20124;-79
2023/09/24 10:55:15;;;;;;;7.05;1.10;;;;;;;19.90;70.52;99090.44;5019844;28;20040;-79
2023/09/24 10:58:02;;;;;;;2.38;0.80;;;;;;;19.73;71.15;99153.72;5017609;28;20100;-78
2023/09/24 11:00:29;;;;;;;3.90;1.17;;;;;;;19.85;73.21;99489.31;4994909;28;20037;-78
2023/09/24 11:03:01;;;;;;;4.10;0.70;;;;;;;19.85;73.45;99562.44;5018956;28;20041;-79
2023/09/24 11:05:29;;;;;;;4.35;0.88;;;;;;;19.93;72.12;99371.59;5017317;28;20033;-78
2023/09/24 11:07:55;;;;;;;4.28;0.82;;;;;;;20.21;73.44;99665.84;4999579;28;20028;-78
2023/09/24 11:10:22;;;;;;;2.35;0.80;;;;;;;20.08;72.06;99396.09;5017086;28;20038;-79
2023/09/24 11:12:49;;;;;;;2.58;1.08;;;;;;;20.36;71.57;99460.00;4999696;28;20033;-78
2023/09/24 11:15:17;;;;;;;1.77;0.80;;;;;;;21.38;70.78;99736.81;5017732;28;20036;-78